createdAt,value
2022-08-30T00:01:14.244Z,41.27
2022-08-30T00:03:45.892Z,41.06
2022-08-30T00:06:14.763Z,41.03
2022-08-30T00:08:43.059Z,41.43
2022-08-30T00:11:13.003Z,41.53
2022-08-30T00:13:41.243Z,41.51
2022-08-30T00:16:09.210Z,41.64
2022-08-30T00:18:38.657Z,41.81
2022-08-30T00:21:06.677Z,41.73
2022-08-30T00:23:34.944Z,41.86
2022-08-30T00:26:02.948Z,42.04
2022-08-30T00:28:32.004Z,42.20
2022-08-30T00:31:00.228Z,42.39
2022-08-30T00:33:28.267Z,42.55
2022-08-30T00:35:57.464Z,42.74
2022-08-30T00:38:25.604Z,42.89
2022-08-30T00:40:53.600Z,42.96
2022-08-30T00:43:24.288Z,43.34
2022-08-30T00:45:55.763Z,43.33
2022-08-30T00:48:24.103Z,43.23
2022-08-30T00:50:53.887Z,43.35
2022-08-30T00:53:25.483Z,43.38
2022-08-30T00:55:53.298Z,43.52
2022-08-30T00:58:23.847Z,43.45
2022-08-30T01:00:52.033Z,43.75
2022-08-30T01:03:20.035Z,43.70
2022-08-30T01:05:47.861Z,43.51
2022-08-30T01:08:16.380Z,43.85
2022-08-30T01:10:45.669Z,43.70
2022-08-30T01:13:14.129Z,44.00
2022-08-30T01:15:41.945Z,44.05
2022-08-30T01:18:10.265Z,44.17
2022-08-30T01:20:44.701Z,44.46
2022-08-30T01:23:15.070Z,44.62
2022-08-30T01:25:43.710Z,44.80
2022-08-30T01:28:12.552Z,44.87
2022-08-30T01:30:40.534Z,44.97
2022-08-30T01:33:08.953Z,45.23
2022-08-30T01:35:47.363Z,45.13
2022-08-30T01:38:17.903Z,45.10
2022-08-30T01:40:45.889Z,45.17
2022-08-30T01:43:14.047Z,45.37
2022-08-30T01:45:42.164Z,45.40
2022-08-30T01:48:12.794Z,45.36
2022-08-30T01:50:42.235Z,45.63
2022-08-30T01:53:12.312Z,46.08
2022-08-30T01:55:42.841Z,46.01
2022-08-30T01:58:10.830Z,45.88
2022-08-30T02:00:39.237Z,45.96
2022-08-30T02:03:07.105Z,46.02
2022-08-30T02:05:35.169Z,46.04
2022-08-30T02:08:03.594Z,46.03
2022-08-30T02:10:31.694Z,46.24
2022-08-30T02:13:00.906Z,46.25
2022-08-30T02:15:28.923Z,46.24
2022-08-30T02:17:56.772Z,46.33
2022-08-30T02:20:24.761Z,46.29
2022-08-30T02:22:52.630Z,46.42
2022-08-30T02:25:21.323Z,46.59
2022-08-30T02:27:49.250Z,46.60
2022-08-30T02:30:18.512Z,46.66
2022-08-30T02:32:46.557Z,46.61
2022-08-30T02:35:14.376Z,46.68
2022-08-30T02:37:49.543Z,46.89
2022-08-30T02:40:18.374Z,46.90
2022-08-30T02:42:46.390Z,46.91
2022-08-30T02:45:15.260Z,46.88
2022-08-30T02:47:47.198Z,46.94
2022-08-30T02:50:15.345Z,46.91
2022-08-30T02:52:43.348Z,46.98
2022-08-30T02:55:16.058Z,47.01
2022-08-30T02:57:44.541Z,47.01
2022-08-30T03:00:15.666Z,46.93
2022-08-30T03:02:43.491Z,47.13
2022-08-30T03:05:13.294Z,47.17
2022-08-30T03:07:41.218Z,47.09
2022-08-30T03:10:09.602Z,47.33
2022-08-30T03:12:38.007Z,47.42
2022-08-30T03:15:06.601Z,47.42
2022-08-30T03:17:34.450Z,47.52
2022-08-30T03:20:02.471Z,47.61
2022-08-30T03:22:31.834Z,47.43
2022-08-30T03:25:01.405Z,47.46
2022-08-30T03:27:29.754Z,47.52
2022-08-30T03:32:25.390Z,47.53
2022-08-30T03:34:53.216Z,47.48
2022-08-30T03:37:25.570Z,47.58
2022-08-30T03:39:56.690Z,47.67
2022-08-30T03:42:24.832Z,47.67
2022-08-30T03:44:53.012Z,47.82
2022-08-30T03:47:20.962Z,47.85
2022-08-30T03:49:48.948Z,47.90
2022-08-30T03:52:16.881Z,47.97
2022-08-30T03:54:46.570Z,48.15
2022-08-30T03:57:19.959Z,48.25
2022-08-30T03:59:48.342Z,48.17
2022-08-30T04:02:16.311Z,48.29
2022-08-30T04:04:44.233Z,48.28
2022-08-30T04:07:12.192Z,48.54
2022-08-30T04:09:40.038Z,48.42
2022-08-30T04:12:08.211Z,48.74
2022-08-30T04:14:37.591Z,48.77
2022-08-30T04:17:05.735Z,48.72
2022-08-30T04:19:33.630Z,48.78
2022-08-30T04:22:01.959Z,49.02
2022-08-30T04:24:30.919Z,48.98
2022-08-30T04:26:58.767Z,49.05
2022-08-30T04:29:26.582Z,49.27
2022-08-30T04:31:55.833Z,49.26
2022-08-30T04:34:23.803Z,49.09
2022-08-30T04:36:51.657Z,49.32
2022-08-30T04:39:26.424Z,49.47
2022-08-30T04:41:54.283Z,49.48
2022-08-30T04:44:28.206Z,49.56
2022-08-30T04:46:57.471Z,49.54
2022-08-30T04:49:25.426Z,49.91
2022-08-30T04:51:53.420Z,49.88
2022-08-30T04:54:21.460Z,50.04
2022-08-30T04:56:49.336Z,50.24
2022-08-30T04:59:20.453Z,50.26
2022-08-30T05:01:48.679Z,50.20
2022-08-30T05:04:18.136Z,50.15
2022-08-30T05:06:46.178Z,50.51
2022-08-30T05:09:29.644Z,50.08
2022-08-30T05:11:57.510Z,50.33
2022-08-30T05:14:26.625Z,50.45
2022-08-30T05:16:54.476Z,50.63
2022-08-30T05:19:35.997Z,50.25
2022-08-30T05:22:05.216Z,50.47
2022-08-30T05:24:33.126Z,50.08
2022-08-30T05:27:01.144Z,50.15
2022-08-30T05:29:29.316Z,50.03
2022-08-30T05:31:57.114Z,49.93
2022-08-30T05:34:25.216Z,50.08
2022-08-30T05:36:54.455Z,49.81
2022-08-30T05:39:22.476Z,49.83
2022-08-30T05:41:51.022Z,49.72
2022-08-30T05:44:22.939Z,49.71
2022-08-30T05:46:53.207Z,49.83
2022-08-30T05:49:21.171Z,49.61
2022-08-30T05:51:49.044Z,49.80
2022-08-30T05:54:18.355Z,49.59
2022-08-30T05:56:46.700Z,49.53
2022-08-30T05:59:15.558Z,49.48
2022-08-30T06:01:44.332Z,49.47
2022-08-30T06:04:13.111Z,49.06
2022-08-30T06:06:41.895Z,49.08
2022-08-30T06:09:10.559Z,48.86
2022-08-30T06:11:39.848Z,48.75
2022-08-30T06:14:07.785Z,48.56
2022-08-30T06:16:39.704Z,47.98
2022-08-30T06:19:08.427Z,47.75
2022-08-30T06:21:37.035Z,46.95
2022-08-30T06:24:05.571Z,46.27
2022-08-30T06:26:33.542Z,44.85
2022-08-30T06:29:02.786Z,43.84
2022-08-30T06:31:30.898Z,43.33
2022-08-30T06:33:58.811Z,42.77
2022-08-30T06:36:26.951Z,42.79
2022-08-30T06:38:56.597Z,41.26
2022-08-30T06:41:25.337Z,40.40
2022-08-30T06:43:53.368Z,39.42
2022-08-30T06:46:24.838Z,39.36
2022-08-30T06:48:52.799Z,38.20
2022-08-30T06:51:24.388Z,38.05
2022-08-30T06:53:55.443Z,37.69
2022-08-30T06:56:25.206Z,37.49
2022-08-30T06:58:56.470Z,37.09
2022-08-30T07:01:27.075Z,36.51
2022-08-30T07:03:55.519Z,36.12
2022-08-30T07:06:23.486Z,35.98
2022-08-30T07:08:56.179Z,35.99
2022-08-30T07:11:32.152Z,35.75
2022-08-30T07:14:00.272Z,33.90
2022-08-30T07:16:29.750Z,33.16
2022-08-30T07:18:58.669Z,33.60
2022-08-30T07:21:28.758Z,32.30
2022-08-30T07:23:57.162Z,32.95
2022-08-30T07:26:26.390Z,32.92
2022-08-30T07:28:56.223Z,32.71
2022-08-30T07:31:24.716Z,32.66
2022-08-30T07:33:54.376Z,32.19
2022-08-30T07:36:22.460Z,32.12
2022-08-30T07:38:50.469Z,32.35
2022-08-30T07:41:19.974Z,31.82
2022-08-30T07:43:47.911Z,31.91
2022-08-30T07:46:15.871Z,31.19
2022-08-30T07:48:44.175Z,31.04
2022-08-30T07:51:15.155Z,31.03
2022-08-30T07:53:43.006Z,31.72
2022-08-30T07:56:11.691Z,31.57
2022-08-30T07:58:39.800Z,31.32
2022-08-30T08:01:09.960Z,31.07
2022-08-30T08:03:38.928Z,30.35
2022-08-30T08:06:07.604Z,29.74
2022-08-30T08:08:38.660Z,30.10
2022-08-30T08:11:09.734Z,30.07
2022-08-30T08:13:45.205Z,30.07
2022-08-30T08:16:22.876Z,30.25
2022-08-30T08:18:51.938Z,29.66
2022-08-30T08:21:20.033Z,29.21
2022-08-30T08:23:49.424Z,28.85
2022-08-30T08:26:17.323Z,29.23
2022-08-30T08:28:46.708Z,29.21
2022-08-30T08:31:17.755Z,28.64
2022-08-30T08:33:45.712Z,28.48
2022-08-30T08:36:13.682Z,28.38
2022-08-30T08:38:41.528Z,28.04
2022-08-30T08:41:35.267Z,26.73
2022-08-30T08:44:05.340Z,27.01
2022-08-30T08:46:37.039Z,27.34
2022-08-30T08:49:06.146Z,26.64
2022-08-30T08:51:52.677Z,26.62
2022-08-30T08:54:23.531Z,26.86
2022-08-30T08:56:52.959Z,26.48
2022-08-30T08:59:20.838Z,26.79
2022-08-30T09:02:03.274Z,27.25
2022-08-30T09:04:33.594Z,27.75
2022-08-30T09:07:03.735Z,27.26
2022-08-30T09:09:33.171Z,26.75
2022-08-30T09:12:02.670Z,27.10
2022-08-30T09:14:34.786Z,27.73
2022-08-30T09:17:03.210Z,27.58
2022-08-30T09:19:37.002Z,27.67
2022-08-30T09:22:07.384Z,26.68
2022-08-30T09:24:41.125Z,26.98
2022-08-30T09:27:23.804Z,27.83
2022-08-30T09:29:54.228Z,26.59
2022-08-30T09:32:36.993Z,26.33
2022-08-30T09:35:07.391Z,26.14
2022-08-30T09:37:39.012Z,24.94
2022-08-30T09:40:16.851Z,25.04
2022-08-30T09:43:02.622Z,24.84
2022-08-30T09:45:33.116Z,24.28
2022-08-30T09:48:01.112Z,24.02
2022-08-30T09:50:29.305Z,23.54
2022-08-30T09:53:01.098Z,23.69
2022-08-30T09:55:39.024Z,23.87
2022-08-30T09:58:11.349Z,24.01
2022-08-30T10:00:42.750Z,23.58
2022-08-30T10:03:36.174Z,23.49
2022-08-30T10:06:13.939Z,24.52
2022-08-30T10:08:52.165Z,24.97
2022-08-30T10:11:25.378Z,24.96
2022-08-30T10:14:07.688Z,24.90
2022-08-30T10:16:45.207Z,25.18
2022-08-30T10:19:29.618Z,25.33
2022-08-30T10:22:00.496Z,25.31
2022-08-30T10:24:33.474Z,25.30
2022-08-30T10:27:10.013Z,25.77
2022-08-30T10:29:43.337Z,26.32
2022-08-30T10:32:13.964Z,25.88
2022-08-30T10:34:42.605Z,26.37
2022-08-30T10:37:12.487Z,26.04
2022-08-30T10:39:42.792Z,25.45
2022-08-30T10:42:19.053Z,25.13
2022-08-30T10:44:51.431Z,25.41
2022-08-30T10:47:25.246Z,25.45
2022-08-30T10:49:56.667Z,24.52
2022-08-30T10:52:27.098Z,23.83
2022-08-30T10:54:56.745Z,21.85
2022-08-30T10:57:25.627Z,22.39
2022-08-30T10:59:58.403Z,22.29
2022-08-30T11:03:05.698Z,21.91
2022-08-30T11:05:59.886Z,21.85
2022-08-30T11:08:38.396Z,22.35
2022-08-30T11:11:13.021Z,21.75
2022-08-30T11:13:41.256Z,21.94
2022-08-30T11:16:15.404Z,21.43
2022-08-30T11:18:45.333Z,21.73
2022-08-30T11:21:22.422Z,21.19
2022-08-30T11:24:11.495Z,21.24
2022-08-30T11:26:57.292Z,21.19
2022-08-30T11:29:39.978Z,20.58
2022-08-30T11:32:49.671Z,20.23
2022-08-30T11:35:45.988Z,19.97
2022-08-30T11:38:19.891Z,20.88
2022-08-30T11:40:53.335Z,19.68
2022-08-30T11:43:54.286Z,20.05
2022-08-30T11:46:35.221Z,20.26
2022-08-30T11:49:06.951Z,19.83
2022-08-30T11:52:08.519Z,20.05
2022-08-30T11:54:44.752Z,21.21
2022-08-30T11:57:18.671Z,21.51
2022-08-30T11:59:52.213Z,21.96
2022-08-30T12:02:43.581Z,22.35
2022-08-30T12:05:26.938Z,22.37
2022-08-30T12:08:01.023Z,23.73
2022-08-30T12:10:37.950Z,23.69
2022-08-30T12:13:06.330Z,23.65
2022-08-30T12:15:58.133Z,23.89
2022-08-30T12:18:32.187Z,23.83
2022-08-30T12:21:07.810Z,23.60
2022-08-30T12:23:44.636Z,24.36
2022-08-30T12:26:20.147Z,23.78
2022-08-30T12:28:49.764Z,24.67
2022-08-30T12:31:19.467Z,24.72
2022-08-30T12:33:50.747Z,24.52
2022-08-30T12:36:32.831Z,25.29
2022-08-30T12:39:11.125Z,24.89
2022-08-30T12:41:43.710Z,25.07
2022-08-30T12:44:15.865Z,25.05
2022-08-30T12:46:44.645Z,24.95
2022-08-30T12:49:14.408Z,25.08
2022-08-30T12:51:43.936Z,25.33
2022-08-30T12:54:18.207Z,25.61
2022-08-30T12:57:03.682Z,25.06
2022-08-30T12:59:52.837Z,24.94
2022-08-30T13:02:24.225Z,25.24
2022-08-30T13:04:52.805Z,25.38
2022-08-30T13:07:32.639Z,25.92
2022-08-30T13:10:12.049Z,25.90
2022-08-30T13:12:40.387Z,25.47
2022-08-30T13:15:14.212Z,25.46
2022-08-30T13:17:42.526Z,25.83
2022-08-30T13:20:22.908Z,25.55
2022-08-30T13:23:07.013Z,25.86
2022-08-30T13:25:38.327Z,26.28
2022-08-30T13:28:06.944Z,26.26
2022-08-30T13:30:35.119Z,25.91
2022-08-30T13:33:03.134Z,25.94
2022-08-30T13:35:31.131Z,25.90
2022-08-30T13:37:59.093Z,26.01
2022-08-30T13:40:27.065Z,26.20
2022-08-30T13:42:56.477Z,26.78
2022-08-30T13:45:44.429Z,27.05
2022-08-30T13:48:12.529Z,26.97
2022-08-30T13:50:40.932Z,26.90
2022-08-30T13:53:09.410Z,27.28
2022-08-30T13:55:38.331Z,27.38
2022-08-30T13:58:07.666Z,27.64
2022-08-30T14:00:38.127Z,27.34
2022-08-30T14:03:06.551Z,27.42
2022-08-30T14:06:09.966Z,27.34
2022-08-30T14:11:18.735Z,27.37
2022-08-30T14:16:37.101Z,27.07
2022-08-30T14:19:05.752Z,26.74
2022-08-30T14:21:33.944Z,27.32
2022-08-30T14:24:01.949Z,27.36
2022-08-30T14:26:32.924Z,27.28
2022-08-30T14:29:03.473Z,27.28
2022-08-30T14:31:33.350Z,27.24
2022-08-30T14:34:03.330Z,27.56
2022-08-30T14:36:32.221Z,27.86
2022-08-30T14:39:00.138Z,27.56
2022-08-30T14:41:28.346Z,27.72
2022-08-30T14:43:56.219Z,27.96
2022-08-30T14:46:26.963Z,28.12
2022-08-30T14:48:55.388Z,27.88
2022-08-30T14:51:24.002Z,28.22
2022-08-30T14:53:52.451Z,28.02
2022-08-30T14:56:22.487Z,27.41
2022-08-30T14:58:50.832Z,27.09
2022-08-30T15:01:19.183Z,27.59
2022-08-30T15:03:48.543Z,27.37
2022-08-30T15:06:16.583Z,27.39
2022-08-30T15:08:47.670Z,27.48
2022-08-30T15:11:17.703Z,27.44
2022-08-30T15:13:45.559Z,27.36
2022-08-30T15:16:14.959Z,27.95
2022-08-30T15:18:43.939Z,27.81
2022-08-30T15:21:13.296Z,27.63
2022-08-30T15:23:41.319Z,27.81
2022-08-30T15:26:09.861Z,28.18
2022-08-30T15:28:38.075Z,28.20
2022-08-30T15:31:09.077Z,28.56
2022-08-30T15:33:37.882Z,28.56
2022-08-30T15:36:06.214Z,28.50
2022-08-30T15:38:35.949Z,29.01
2022-08-30T15:41:07.201Z,28.65
2022-08-30T15:43:35.390Z,28.58
2022-08-30T15:46:17.878Z,28.63
2022-08-30T15:48:46.695Z,29.04
2022-08-30T15:51:14.944Z,28.62
2022-08-30T15:53:44.828Z,29.13
2022-08-30T15:56:12.974Z,28.87
2022-08-30T15:58:41.316Z,29.09
2022-08-30T16:01:09.281Z,29.17
2022-08-30T16:03:37.925Z,28.74
2022-08-30T16:06:07.694Z,29.22
2022-08-30T16:08:35.573Z,29.18
2022-08-30T16:11:06.015Z,28.94
2022-08-30T16:13:34.818Z,28.88
2022-08-30T16:16:08.076Z,29.16
2022-08-30T16:18:36.224Z,29.47
2022-08-30T16:21:05.525Z,29.63
2022-08-30T16:23:33.853Z,29.63
2022-08-30T16:26:04.174Z,29.58
2022-08-30T16:28:37.656Z,29.26
2022-08-30T16:31:07.357Z,29.86
2022-08-30T16:33:37.979Z,29.89
2022-08-30T16:36:10.943Z,29.55
2022-08-30T16:38:39.266Z,29.58
2022-08-30T16:41:08.465Z,29.74
2022-08-30T16:43:38.839Z,30.07
2022-08-30T16:46:08.441Z,29.99
2022-08-30T16:48:36.337Z,30.25
2022-08-30T16:51:08.794Z,30.59
2022-08-30T16:53:36.846Z,30.50
2022-08-30T16:56:08.213Z,30.40
2022-08-30T16:58:37.716Z,30.36
2022-08-30T17:01:09.548Z,30.92
2022-08-30T17:03:38.401Z,30.67
2022-08-30T17:06:07.174Z,31.12
2022-08-30T17:11:04.792Z,30.81
2022-08-30T17:13:33.245Z,31.22
2022-08-30T17:16:02.578Z,31.12
2022-08-30T17:18:30.487Z,31.24
2022-08-30T17:20:58.742Z,31.53
2022-08-30T17:23:26.908Z,32.04
2022-08-30T17:29:06.515Z,32.52
2022-08-30T17:31:37.429Z,31.83
2022-08-30T17:34:05.794Z,32.37
2022-08-30T17:36:35.468Z,32.05
2022-08-30T17:39:10.492Z,32.52
2022-08-30T17:41:39.759Z,32.41
2022-08-30T17:44:11.195Z,32.71
2022-08-30T17:46:40.475Z,33.09
2022-08-30T17:49:10.636Z,32.76
2022-08-30T17:51:41.912Z,33.07
2022-08-30T17:54:10.445Z,32.85
2022-08-30T17:56:39.585Z,33.38
2022-08-30T17:59:08.111Z,32.78
2022-08-30T18:01:37.288Z,33.58
2022-08-30T18:04:06.764Z,33.14
2022-08-30T18:06:34.879Z,33.51
2022-08-30T18:09:02.786Z,33.51
2022-08-30T18:11:30.740Z,33.42
2022-08-30T18:13:58.672Z,33.51
2022-08-30T18:16:27.868Z,33.47
2022-08-30T18:18:57.062Z,33.86
2022-08-30T18:21:28.511Z,33.98
2022-08-30T18:23:56.854Z,33.86
2022-08-30T18:26:24.988Z,34.15
2022-08-30T18:28:53.293Z,34.01
2022-08-30T18:31:21.329Z,34.31
2022-08-30T18:33:49.527Z,34.41
2022-08-30T18:36:17.850Z,34.51
2022-08-30T18:38:47.591Z,34.52
2022-08-30T18:41:15.658Z,34.58
2022-08-30T18:43:43.888Z,34.70
2022-08-30T18:46:14.044Z,34.69
2022-08-30T18:48:42.775Z,34.72
2022-08-30T18:51:11.535Z,35.03
2022-08-30T18:53:39.353Z,35.06
2022-08-30T18:56:10.370Z,35.10
2022-08-30T18:58:40.259Z,35.19
2022-08-30T19:01:12.948Z,35.36
2022-08-30T19:03:41.941Z,35.56
2022-08-30T19:06:11.346Z,35.35
2022-08-30T19:08:40.140Z,35.67
2022-08-30T19:11:08.505Z,35.86
2022-08-30T19:13:37.758Z,35.53
2022-08-30T19:16:07.458Z,35.72
2022-08-30T19:18:40.134Z,35.78
2022-08-30T19:21:13.471Z,35.72
2022-08-30T19:23:41.750Z,35.90
2022-08-30T19:26:10.933Z,35.83
2022-08-30T19:28:40.319Z,35.92
2022-08-30T19:31:08.310Z,36.06
2022-08-30T19:33:36.175Z,36.15
2022-08-30T19:36:06.883Z,36.16
2022-08-30T19:38:35.633Z,36.05
2022-08-30T19:41:03.795Z,36.00
2022-08-30T19:43:31.644Z,36.03
2022-08-30T19:46:01.304Z,36.29
2022-08-30T19:48:32.455Z,36.34
2022-08-30T19:51:01.424Z,36.45
2022-08-30T19:53:29.480Z,36.47
2022-08-30T19:55:57.369Z,36.33
2022-08-30T19:58:25.515Z,36.46
2022-08-30T20:00:54.648Z,36.78
2022-08-30T20:03:29.950Z,36.23
2022-08-30T20:05:57.936Z,36.57
2022-08-30T20:08:26.040Z,36.73
2022-08-30T20:10:54.091Z,36.37
2022-08-30T20:13:23.530Z,36.32
2022-08-30T20:15:55.825Z,36.65
2022-08-30T20:18:25.938Z,36.41
2022-08-30T20:20:55.215Z,36.51
2022-08-30T20:23:23.898Z,36.40
2022-08-30T20:25:53.390Z,36.34
2022-08-30T20:28:21.655Z,36.31
2022-08-30T20:30:49.879Z,36.67
2022-08-30T20:33:18.180Z,36.35
2022-08-30T20:35:49.249Z,36.52
2022-08-30T20:38:21.944Z,36.73
2022-08-30T20:40:51.409Z,36.29
2022-08-30T20:43:19.497Z,36.46
2022-08-30T20:45:47.527Z,36.38
2022-08-30T20:48:15.420Z,36.43
2022-08-30T20:50:43.520Z,36.47
2022-08-30T20:53:11.524Z,36.65
2022-08-30T20:55:43.525Z,36.84
2022-08-30T20:58:11.499Z,36.91
2022-08-30T21:00:39.586Z,37.10
2022-08-30T21:03:25.536Z,36.82
2022-08-30T21:05:55.069Z,36.75
2022-08-30T21:08:23.096Z,37.01
2022-08-30T21:10:52.364Z,36.92
2022-08-30T21:13:20.393Z,37.06
2022-08-30T21:15:52.825Z,36.88
2022-08-30T21:18:23.550Z,36.70
2022-08-30T21:20:51.506Z,36.42
2022-08-30T21:23:19.466Z,36.85
2022-08-30T21:25:47.326Z,37.01
2022-08-30T21:28:17.647Z,36.58
2022-08-30T21:30:45.932Z,36.82
2022-08-30T21:33:13.883Z,36.63
2022-08-30T21:35:59.141Z,36.89
2022-08-30T21:38:27.112Z,37.02
2022-08-30T21:40:55.094Z,36.49
2022-08-30T21:43:24.327Z,36.33
2022-08-30T21:45:53.619Z,37.08
2022-08-30T21:48:21.526Z,36.51
2022-08-30T21:50:49.445Z,36.59
2022-08-30T21:53:17.452Z,36.83
2022-08-30T21:55:45.862Z,36.90
2022-08-30T21:58:16.144Z,37.11
2022-08-30T22:00:45.492Z,36.79
2022-08-30T22:03:13.653Z,36.64
2022-08-30T22:05:41.934Z,37.19
2022-08-30T22:08:09.812Z,37.12
2022-08-30T22:10:37.643Z,37.32
2022-08-30T22:13:06.409Z,36.84
2022-08-30T22:15:34.938Z,37.05
2022-08-30T22:18:04.451Z,36.95
2022-08-30T22:20:32.373Z,36.82
2022-08-30T22:23:00.372Z,37.32
2022-08-30T22:25:28.212Z,37.20
2022-08-30T22:27:56.155Z,36.89
2022-08-30T22:30:24.051Z,36.98
2022-08-30T22:32:52.729Z,36.95
2022-08-30T22:35:23.824Z,37.22
2022-08-30T22:37:53.204Z,37.77
2022-08-30T22:40:21.733Z,37.56
2022-08-30T22:42:49.691Z,37.71
2022-08-30T22:45:17.746Z,37.47
2022-08-30T22:47:45.626Z,38.04
2022-08-30T22:50:14.286Z,37.88
2022-08-30T22:52:44.017Z,38.07
2022-08-30T22:55:11.838Z,37.82
2022-08-30T22:57:39.948Z,38.03
2022-08-30T23:00:10.579Z,37.93
2022-08-30T23:02:38.615Z,37.93
2022-08-30T23:05:07.292Z,38.06
2022-08-30T23:07:35.263Z,37.68
